Nearby METAR Reports

 

KIAG - Niagara Falls, New York, USA
Distance from station: W 13mi, 20km
Updated: Sun, 12-Jul-2020 7:53am EDT
Clear
Clear
 Wind from W
Wind: W 10 mph , 17 km/h
Temperature: 68°F , 20°C
Dew Point: 61°F , 16°C
Humidity: 78%
Barometer: 29.73 inHg , 1006.8 hPa
Clouds: Clear
Visibility: 10 miles , 16 km
2020/07/12 11:53 KIAG 121153Z 27009KT 10SM CLR 20/16 A2973 RMK AO2 SLP064 70059 T02000156 10200 20172 51016
KBUF - Buffalo/Cheektow, New York, USA
Distance from station: S 15mi, 24km
Updated: Sun, 12-Jul-2020 7:54am EDT
Few Clouds
Few Clouds
 Wind from SW
Wind: SW 9 mph , 15 km/h
Temperature: 72°F , 22°C
Dew Point: 61°F , 16°C
Humidity: 69%
Barometer: 29.74 inHg , 1007.1 hPa
Clouds: Few Clouds
Visibility: 10 miles , 16 km
Cloud details: Few Clouds 26000 ft
2020/07/12 11:54 KBUF 121154Z 23008KT 10SM FEW260 22/16 A2974 RMK AO2 SLP068 70121 T02170156 10222 20200 51016 $
 
CYSN - St. Catharines A, Ontario, Canada
Distance from station: W 24mi, 39km
Updated: Sun, 12-Jul-2020 8:00am EDT
Few Clouds
Few Clouds
 Wind from W
Wind: W 9 mph , 15 km/h
Temperature: 70°F , 21°C
Dew Point: 61°F , 16°C
Humidity: 73%
Barometer: 29.72 inHg , 1006.4 hPa
Clouds: Few Clouds
Visibility: 15 miles , 24 km
Cloud details: Few Clouds 25000 ft
2020/07/12 12:00 CYSN 121200Z 27008KT 15SM FEW250 21/16 A2972 RMK CI2 SLP066 DENSITY ALT 1400FT
CWWZ - Port Weller (mar, Ontario, Canada
Distance from station: WNW 28mi, 44km
Updated: Sun, 12-Jul-2020 8:00am EDT

 Wind from W
Wind: W 16 mph , 26 km/h
Temperature: 73°F , 23°C
Dew Point: 66°F , 19°C
Humidity: 78%
2020/07/12 12:00 CWWZ 121200Z AUTO 28014KT 23/19 RMK AO1 PK WND 27018/1131 SLP066 T02280194 51016
 
CWPC - Port Colborne(Au, Ontario, Canada
Distance from station: SW 35mi, 56km
Updated: Sun, 12-Jul-2020 8:00am EDT

 Wind from NW
Wind: NW 10 mph , 17 km/h
Temperature: 68°F , 20°C
Dew Point: 59°F , 15°C
Humidity: 73%
2020/07/12 12:00 CWPC 121200Z AUTO 32009KT 20/15 RMK AO1 SLP073 T02000148 51013
CXVN - Vineland (au8), Ontario, Canada
Distance from station: W 36mi, 58km
Updated: Sun, 12-Jul-2020 8:00am EDT

 Wind from W
Wind: W 9 mph , 15 km/h
Temperature: 70°F , 21°C
Dew Point: 61°F , 16°C
Humidity: 73%
2020/07/12 12:00 CXVN 121200Z AUTO 28008KT 21/16 RMK AO1 SLP065 T02090157 51013
 
CYTZ - Toronto Il Vor, Ontario, Canada
Distance from station: NW 49mi, 79km
Updated: Sun, 12-Jul-2020 8:00am EDT
Clear
Clear
 Wind from W
Wind: W 8 mph , 13 km/h
Temperature: 70°F , 21°C
Dew Point: 63°F , 17°C
Humidity: 78%
Barometer: 29.71 inHg , 1006.1 hPa
Clouds: Clear
Visibility: 9 miles , 14 km
2020/07/12 12:00 CYTZ 121200Z AUTO 28007KT 9SM CLR 21/17 A2971 RMK SLP062 DENSITY ALT 1200FT
KROC - Rochester, New York, USA
Distance from station: E 51mi, 81km
Updated: Sun, 12-Jul-2020 7:54am EDT
Partly cloudy
Partly cloudy
 Wind from W
Wind: W 10 mph , 17 km/h
Temperature: 70°F , 21°C
Dew Point: 64°F , 18°C
Humidity: 83%
Barometer: 29.72 inHg , 1006.4 hPa
Clouds: Partly cloudy
Visibility: 10 miles , 16 km
Cloud details: Few Clouds 3700 ft
Few Clouds 15000 ft
Partly cloudy 20000 ft
2020/07/12 11:54 KROC 121154Z 26009KT 10SM FEW037 FEW150 SCT200 21/18 A2972 RMK AO2 SLP064 70320 T02110178 10211 20183 51016
 
CXTO - Toronto City, Ontario, Canada
Distance from station: NW 51mi, 82km
Updated: Sun, 12-Jul-2020 8:00am EDT

 
Temperature: 68°F , 20°C
Dew Point: 61°F , 16°C
Humidity: 78%
2020/07/12 12:00 CXTO 121200Z AUTO 20/16 RMK AO1 SLP068 T01950157 51017
CYOO - Oshawa, Ontario, Canada
Distance from station: NNW 54mi, 87km
Updated: Sun, 12-Jul-2020 8:00am EDT
Clear
Clear
 Wind from WNW
Wind: WNW 10 mph , 17 km/h
Temperature: 72°F , 22°C
Dew Point: 64°F , 18°C
Humidity: 78%
Barometer: 29.70 inHg , 1005.8 hPa
Clouds: Clear
Visibility: 9 miles , 14 km
2020/07/12 12:00 CYOO 121200Z AUTO 30009KT 9SM CLR 22/18 A2970 RMK SLP056 DENSITY ALT 1500FT
 
KDKK - Dunkirk, New York, USA
Distance from station: SW 54mi, 87km
Updated: Sun, 12-Jul-2020 7:53am EDT
Clear
Clear
 Wind from SW
Wind: SW 5 mph , 7 km/h
Temperature: 72°F , 22°C
Dew Point: 61°F , 16°C
Humidity: 69%
Barometer: 29.78 inHg , 1008.5 hPa
Clouds: Clear
Visibility: 10 miles , 16 km
2020/07/12 11:53 KDKK 121153Z AUTO 22004KT 10SM CLR 22/16 A2978 RMK AO2 SLP078 70096 T02220161 10239 20183 51015
CWWB - Burlington Piers, Ontario, Canada
Distance from station: W 56mi, 91km
Updated: Sun, 12-Jul-2020 8:00am EDT

 Wind from W
Wind: W 7 mph , 11 km/h
Temperature: 68°F , 20°C
Dew Point: 61°F , 16°C
Humidity: 78%
2020/07/12 12:00 CWWB 121200Z AUTO 27006KT 20/16 RMK AO1 SLP070 T01960163 51015
 
CYYZ - Toronto/Pearson, Ontario, Canada
Distance from station: NW 59mi, 95km
Updated: Sun, 12-Jul-2020 8:00am EDT
Few Clouds
Few Clouds
 Wind from WNW
Wind: WNW 13 mph , 20 km/h
Temperature: 70°F , 21°C
Dew Point: 63°F , 17°C
Humidity: 78%
Barometer: 29.72 inHg , 1006.4 hPa
Clouds: Few Clouds
Visibility: 15 miles , 24 km
Cloud details: Few Clouds 9000 ft
Few Clouds 25000 ft
2020/07/12 12:00 CYYZ 121200Z 30011KT 15SM FEW090 FEW250 21/17 A2972 RMK AC1CI1 AC TR CI TR CONTRAILS SLP064 DENSITY ALT 1700FT
CWNC - Cobourg (mars), Ontario, Canada
Distance from station: NNE 61mi, 98km
Updated: Sun, 12-Jul-2020 8:00am EDT

 Wind from WSW
Wind: WSW 7 mph , 11 km/h
Temperature: 72°F , 22°C
Dew Point: 68°F , 20°C
Humidity: 88%
2020/07/12 12:00 CWNC 121200Z AUTO 25006KT 22/20 RMK AO1 SLP052 T02170195 52020
 
CXHM - Hamilton Rbg Cs, Ontario, Canada
Distance from station: W 62mi, 100km
Updated: Sun, 12-Jul-2020 8:00am EDT

 Wind from WNW
Wind: WNW 3 mph , 6 km/h
Temperature: 64°F , 18°C
Dew Point: 57°F , 14°C
Humidity: 78%
2020/07/12 12:00 CXHM 121200Z AUTO 29003KT 18/14 RMK AO1 SLP069 T01800136 51017
CYHM - Hamilton Airport, Ontario, Canada
Distance from station: W 63mi, 101km
Updated: Sun, 12-Jul-2020 8:00am EDT
Few Clouds
Few Clouds
 Wind from W
Wind: W 9 mph , 15 km/h
Temperature: 64°F , 18°C
Dew Point: 61°F , 16°C
Humidity: 88%
Barometer: 29.75 inHg , 1007.5 hPa
Clouds: Few Clouds
Visibility: 15 miles , 24 km
Cloud details: Few Clouds 7500 ft
Few Clouds 25000 ft
2020/07/12 12:00 CYHM 121200Z 28008KT 15SM FEW075 FEW250 18/16 A2975 RMK AC1CI2 AC TR SLP074 DENSITY ALT 1600FT
 
KDSV - Dansville, New York, USA
Distance from station: SE 63mi, 102km
Updated: Sun, 12-Jul-2020 7:54am EDT
Clear
Clear
 Wind from ESE
Wind: ESE 7 mph , 11 km/h
Temperature: 72°F , 22°C
Dew Point: 64°F , 18°C
Humidity: 78%
Barometer: 29.75 inHg , 1007.5 hPa
Clouds: Clear
Visibility: 10 miles , 16 km
2020/07/12 11:54 KDSV 121154Z AUTO 12006KT 10SM CLR 22/18 A2975 RMK AO2 SLP079 60001 70189 T02170178 10217 20183 51015
KOLE - Olean, New York, USA
Distance from station: SSE 65mi, 105km
Updated: Sun, 12-Jul-2020 8:15am EDT
Clear
Clear
 Wind from WNW
Wind: WNW 3 mph , 6 km/h
Temperature: 64°F , 18°C
Dew Point: 64°F , 18°C
Humidity: 100%
Barometer: 29.83 inHg , 1010.2 hPa
Clouds: Clear
Visibility: 10 miles , 16 km
2020/07/12 12:15 KOLE 121215Z AUTO 29003KT 10SM CLR 18/18 A2983 RMK AO2